Time;durP1;ratioP1;P1;durP2;ratioP2;P2;SDS_P1;SDS_P2;PMS_P1;PMS_P2;Temp;Humidity;BMP_temperature;BMP_pressure;BME280_temperature;BME280_humidity;BME280_pressure;Samples;Min_cycle;Max_cycle;Signal;HPM_P1;HPM_P2
2021/12/31 00:00:09;;;;;;;;;;;12.30;99.90;;;;;;5025371;28;19965;-81
2021/12/31 00:02:37;;;;;;;;;;;12.30;99.90;;;;;;5025453;28;20285;-81
2021/12/31 00:05:05;;;;;;;;;;;12.30;99.90;;;;;;5024835;28;19925;-79
2021/12/31 00:07:31;;;;;;;;;;;12.30;99.90;;;;;;5025734;28;19926;-80
2021/12/31 00:10:00;;;;;;;;;;;12.30;99.90;;;;;;5025506;28;19926;-81
2021/12/31 00:12:27;;;;;;;;;;;12.30;99.90;;;;;;5029305;28;19925;-79
2021/12/31 00:14:55;;;;;;;;;;;12.30;99.90;;;;;;5034039;28;20245;-80
2021/12/31 00:17:22;;;;;;;;;;;12.30;99.90;;;;;;5034747;28;19948;-79
2021/12/31 00:19:59;;;;;;;;;;;12.30;99.90;;;;;;5035220;28;19925;-79
2021/12/31 00:25:06;;;;;;;;;;;12.10;99.90;;;;;;5028347;28;19922;-80
2021/12/31 00:27:33;;;;;;;;;;;12.30;99.90;;;;;;5023719;28;19926;-80
2021/12/31 00:29:59;;;;;;;;;;;12.30;99.90;;;;;;5024336;28;19979;-80
2021/12/31 00:32:26;;;;;;;;;;;12.30;99.90;;;;;;5024379;28;19926;-81
2021/12/31 00:34:53;;;;;;;;;;;12.30;99.90;;;;;;5023553;28;19925;-81
2021/12/31 00:37:25;;;;;;;;;;;12.30;99.90;;;;;;5024225;28;19925;-79
2021/12/31 00:39:52;;;;;;;;;;;12.30;99.90;;;;;;5031143;28;19933;-80
2021/12/31 00:42:18;;;;;;;;;;;12.30;99.90;;;;;;5025981;28;19926;-82
2021/12/31 00:44:45;;;;;;;;;;;12.30;99.90;;;;;;5024007;28;19926;-80
2021/12/31 00:47:11;;;;;;;;;;;12.30;99.90;;;;;;5022037;28;19961;-80
2021/12/31 00:49:38;;;;;;;;;;;12.30;99.90;;;;;;5022329;28;19964;-80
2021/12/31 00:52:07;;;;;;;;;;;12.30;99.90;;;;;;5021730;28;20004;-80
2021/12/31 00:54:33;;;;;;;;;;;12.30;99.90;;;;;;5019956;28;20024;-81
2021/12/31 00:57:03;;;;;;;;;;;12.30;99.90;;;;;;5021584;28;19925;-81
2021/12/31 00:59:29;;;;;;;;;;;12.30;99.90;;;;;;5022677;28;19925;-81
2021/12/31 01:01:56;;;;;;;;;;;12.40;99.90;;;;;;5022001;28;20323;-79
2021/12/31 01:04:23;;;;;;;;;;;12.40;99.90;;;;;;5021524;28;19977;-80
2021/12/31 01:06:49;;;;;;;;;;;12.30;99.90;;;;;;5018409;28;20020;-80
2021/12/31 01:09:17;;;;;;;;;;;12.40;99.90;;;;;;5019786;28;19926;-80
2021/12/31 01:11:47;;;;;;;;;;;12.40;99.90;;;;;;5020959;28;19932;-80
2021/12/31 01:14:25;;;;;;;;;;;12.40;99.90;;;;;;5021030;28;19976;-79
2021/12/31 01:16:57;;;;;;;;;;;12.50;99.90;;;;;;5020777;28;19968;-80
2021/12/31 01:22:07;;;;;;;;;;;12.40;99.90;;;;;;5020623;28;19975;-80
2021/12/31 01:24:35;;;;;;;;;;;12.40;99.90;;;;;;5021067;28;19925;-79
2021/12/31 01:27:02;;;;;;;;;;;12.40;99.90;;;;;;5021461;28;19968;-80
2021/12/31 01:29:28;;;;;;;;;;;12.40;99.90;;;;;;5021693;28;19925;-80
2021/12/31 01:31:55;;;;;;;;;;;12.50;99.90;;;;;;5026645;28;20297;-81
2021/12/31 01:34:24;;;;;;;;;;;12.50;99.90;;;;;;5032593;28;19930;-81
2021/12/31 01:36:50;;;;;;;;;;;12.50;99.90;;;;;;5027093;28;19981;-81
2021/12/31 01:39:17;;;;;;;;;;;12.50;99.90;;;;;;5023261;28;20376;-81
2021/12/31 01:41:45;;;;;;;;;;;12.50;99.90;;;;;;5024804;28;20388;-80
2021/12/31 01:44:11;;;;;;;;;;;12.60;99.90;;;;;;5026717;28;19949;-80
2021/12/31 01:46:40;;;;;;;;;;;12.60;99.90;;;;;;5022068;28;19991;-80
2021/12/31 01:49:17;;;;;;;;;;;12.60;99.90;;;;;;5021970;28;19967;-81
2021/12/31 01:51:44;;;;;;;;;;;12.60;99.90;;;;;;5021890;28;19925;-80
2021/12/31 01:54:10;;;;;;;;;;;12.70;99.90;;;;;;5021418;28;19926;-79
2021/12/31 01:56:37;;;;;;;;;;;12.70;99.90;;;;;;5021808;28;19948;-79
2021/12/31 01:59:07;;;;;;;;;;;12.70;99.90;;;;;;5021881;28;19965;-80
2021/12/31 02:01:35;;;;;;;;;;;12.70;99.90;;;;;;5025909;28;19925;-78
2021/12/31 02:04:01;;;;;;;;;;;12.70;99.90;;;;;;5026789;28;19946;-79
2021/12/31 02:06:28;;;;;;;;;;;12.70;99.90;;;;;;5025830;28;19955;-80
2021/12/31 02:08:56;;;;;;;;;;;12.70;99.90;;;;;;5021883;28;19926;-80
2021/12/31 02:11:22;;;;;;;;;;;12.50;99.90;;;;;;5023963;28;19980;-80
2021/12/31 02:13:49;;;;;;;;;;;12.70;99.90;;;;;;5023991;28;20012;-80
2021/12/31 02:16:17;;;;;;;;;;;12.60;99.90;;;;;;5023248;28;19960;-80
2021/12/31 02:18:44;;;;;;;;;;;12.60;99.90;;;;;;5021891;28;19933;-80
2021/12/31 02:21:13;;;;;;;;;;;12.60;99.90;;;;;;5021537;28;20036;-80
2021/12/31 02:23:44;;;;;;;;;;;12.50;99.90;;;;;;5020526;28;20380;-80
2021/12/31 02:26:11;;;;;;;;;;;12.50;99.90;;;;;;5020663;28;19929;-80
2021/12/31 02:28:37;;;;;;;;;;;12.50;99.90;;;;;;5020680;28;19925;-80
2021/12/31 02:31:04;;;;;;;;;;;12.50;99.90;;;;;;5022812;28;20410;-81
2021/12/31 02:33:31;;;;;;;;;;;12.50;99.90;;;;;;5021067;28;19930;-81
2021/12/31 02:35:57;;;;;;;;;;;12.50;99.90;;;;;;5019965;28;19932;-80
2021/12/31 02:38:25;;;;;;;;;;;12.40;99.90;;;;;;5021452;28;19925;-81
2021/12/31 02:40:52;;;;;;;;;;;12.50;99.90;;;;;;5023009;28;20308;-81
2021/12/31 02:43:18;;;;;;;;;;;12.50;99.90;;;;;;5020226;28;19932;-81
2021/12/31 02:45:45;;;;;;;;;;;12.50;99.90;;;;;;5020566;28;19925;-81
2021/12/31 02:48:12;;;;;;;;;;;12.50;99.90;;;;;;5021316;28;19960;-78
2021/12/31 02:50:40;;;;;;;;;;;12.50;99.90;;;;;;5024443;28;19932;-80
2021/12/31 02:53:08;;;;;;;;;;;12.60;99.90;;;;;;5021534;28;20008;-81
2021/12/31 02:55:36;;;;;;;;;;;12.50;99.90;;;;;;5021387;28;20087;-81
2021/12/31 02:58:04;;;;;;;;;;;12.60;99.90;;;;;;5019966;28;19930;-81
2021/12/31 03:00:30;;;;;;;;;;;12.50;99.90;;;;;;5020081;28;20417;-81
2021/12/31 03:02:58;;;;;;;;;;;12.60;99.90;;;;;;5022445;28;19936;-80
2021/12/31 03:05:26;;;;;;;;;;;12.60;99.90;;;;;;5019690;28;19925;-81
2021/12/31 03:07:54;;;;;;;;;;;12.50;99.90;;;;;;5020360;28;19926;-81
2021/12/31 03:10:21;;;;;;;;;;;12.50;99.90;;;;;;5019650;28;19932;-81
2021/12/31 03:12:51;;;;;;;;;;;12.50;99.90;;;;;;5020737;28;19929;-81
2021/12/31 03:15:17;;;;;;;;;;;12.50;99.90;;;;;;5020655;28;19926;-81
2021/12/31 03:17:44;;;;;;;;;;;12.60;99.90;;;;;;5019628;28;20011;-81
2021/12/31 03:20:13;;;;;;;;;;;12.40;99.90;;;;;;5020123;28;19929;-79
2021/12/31 03:22:41;;;;;;;;;;;12.50;99.90;;;;;;5020303;28;19933;-80
2021/12/31 03:25:09;;;;;;;;;;;12.60;99.90;;;;;;5018000;28;19926;-79
2021/12/31 03:27:36;;;;;;;;;;;12.60;99.90;;;;;;5016991;28;19944;-80
2021/12/31 03:30:04;;;;;;;;;;;12.50;99.90;;;;;;5018396;28;20063;-80
2021/12/31 03:32:31;;;;;;;;;;;12.50;99.90;;;;;;5017936;28;19956;-80
2021/12/31 03:34:57;;;;;;;;;;;12.50;99.90;;;;;;5019867;28;19961;-79
2021/12/31 03:37:24;;;;;;;;;;;12.60;99.90;;;;;;5022258;28;19925;-79
2021/12/31 03:39:50;;;;;;;;;;;12.60;99.90;;;;;;5022514;28;19971;-79
2021/12/31 03:42:18;;;;;;;;;;;12.60;99.90;;;;;;5019411;28;19925;-80
2021/12/31 03:44:44;;;;;;;;;;;12.60;99.90;;;;;;5019711;28;19932;-80
2021/12/31 03:47:12;;;;;;;;;;;12.60;99.90;;;;;;5018480;28;20024;-80
2021/12/31 03:49:39;;;;;;;;;;;12.60;99.90;;;;;;5023494;28;19936;-81
2021/12/31 03:52:05;;;;;;;;;;;12.60;99.90;;;;;;5026493;28;19926;-80
2021/12/31 03:54:31;;;;;;;;;;;12.60;99.90;;;;;;5021815;28;19925;-81
2021/12/31 03:56:58;;;;;;;;;;;12.60;99.90;;;;;;5019806;28;20347;-81
2021/12/31 03:59:24;;;;;;;;;;;12.60;99.90;;;;;;5018857;28;20415;-81
2021/12/31 04:01:51;;;;;;;;;;;12.70;99.90;;;;;;5019147;28;20393;-81
2021/12/31 04:04:19;;;;;;;;;;;12.60;99.90;;;;;;5021573;28;19926;-81
2021/12/31 04:06:45;;;;;;;;;;;12.60;99.90;;;;;;5030026;28;19932;-80
2021/12/31 04:09:11;;;;;;;;;;;12.60;99.90;;;;;;5031628;28;19936;-80
2021/12/31 04:11:38;;;;;;;;;;;12.60;99.90;;;;;;5026012;28;19949;-81
2021/12/31 04:14:04;;;;;;;;;;;12.80;99.90;;;;;;5019448;28;19949;-81
2021/12/31 04:16:32;;;;;;;;;;;12.50;99.90;;;;;;5018770;28;19959;-80
2021/12/31 04:18:58;;;;;;;;;;;12.50;99.90;;;;;;5020197;28;19976;-80
2021/12/31 04:21:27;;;;;;;;;;;12.50;99.90;;;;;;5023706;28;19926;-81
2021/12/31 04:24:05;;;;;;;;;;;12.50;99.90;;;;;;5021628;28;20008;-81
2021/12/31 04:26:32;;;;;;;;;;;12.50;99.90;;;;;;5019285;28;20300;-81
2021/12/31 04:28:58;;;;;;;;;;;12.50;99.90;;;;;;5021389;28;19925;-79
2021/12/31 04:31:25;;;;;;;;;;;12.50;99.90;;;;;;5031589;28;19926;-79
2021/12/31 04:33:51;;;;;;;;;;;12.50;99.90;;;;;;5029908;28;19991;-79
2021/12/31 04:36:18;;;;;;;;;;;12.40;99.90;;;;;;5028276;28;19948;-78
2021/12/31 04:38:45;;;;;;;;;;;12.40;99.90;;;;;;5027909;28;19957;-79
2021/12/31 04:41:12;;;;;;;;;;;12.40;99.90;;;;;;5028758;28;19925;-80
2021/12/31 04:43:38;;;;;;;;;;;12.40;99.90;;;;;;5028014;28;19926;-79
2021/12/31 04:46:05;;;;;;;;;;;12.40;99.90;;;;;;5024902;28;19925;-80
2021/12/31 04:48:31;;;;;;;;;;;12.40;99.90;;;;;;5020744;28;20376;-80
2021/12/31 04:50:58;;;;;;;;;;;12.40;99.90;;;;;;5021065;28;19991;-80
2021/12/31 04:53:24;;;;;;;;;;;12.40;99.90;;;;;;5020516;28;19952;-80
2021/12/31 04:55:52;;;;;;;;;;;12.40;99.90;;;;;;5021436;28;19975;-80
2021/12/31 04:58:18;;;;;;;;;;;12.40;99.90;;;;;;5022989;28;19965;-79
2021/12/31 05:00:45;;;;;;;;;;;12.40;99.90;;;;;;5023661;28;19949;-79
2021/12/31 05:03:11;;;;;;;;;;;12.40;99.90;;;;;;5023423;28;19987;-79
2021/12/31 05:05:38;;;;;;;;;;;12.40;99.90;;;;;;5022463;28;19930;-80
2021/12/31 05:08:04;;;;;;;;;;;12.50;99.90;;;;;;5023023;28;19972;-80
2021/12/31 05:10:32;;;;;;;;;;;12.50;99.90;;;;;;5023371;28;19968;-80
2021/12/31 05:13:01;;;;;;;;;;;12.50;99.90;;;;;;5023471;28;19926;-80
2021/12/31 05:15:31;;;;;;;;;;;12.50;99.90;;;;;;5021659;28;19930;-80
2021/12/31 05:17:58;;;;;;;;;;;12.50;99.90;;;;;;5020539;28;19932;-80
2021/12/31 05:20:24;;;;;;;;;;;12.50;99.90;;;;;;5026979;28;19925;-79
2021/12/31 05:22:52;;;;;;;;;;;12.50;99.90;;;;;;5028385;28;19934;-79
2021/12/31 05:25:19;;;;;;;;;;;12.60;99.90;;;;;;5027685;28;19985;-79
2021/12/31 05:27:45;;;;;;;;;;;12.60;99.90;;;;;;5023598;28;20312;-80
2021/12/31 05:30:13;;;;;;;;;;;12.60;99.90;;;;;;5021698;28;19961;-80
2021/12/31 05:32:39;;;;;;;;;;;12.70;99.90;;;;;;5021460;28;19975;-80
2021/12/31 05:35:07;;;;;;;;;;;12.70;99.90;;;;;;5020618;28;19925;-80
2021/12/31 05:37:33;;;;;;;;;;;12.70;99.90;;;;;;5047615;23;19925;-82
2021/12/31 05:39:59;;;;;;;;;;;12.30;99.90;;;;;;5025428;28;19957;-83
2021/12/31 05:42:26;;;;;;;;;;;12.80;99.90;;;;;;5028308;28;19973;-82
2021/12/31 05:44:52;;;;;;;;;;;12.70;99.90;;;;;;5029522;28;19925;-81
2021/12/31 05:47:20;;;;;;;;;;;12.70;99.90;;;;;;5027364;28;19925;-83
2021/12/31 05:49:48;;;;;;;;;;;12.70;99.90;;;;;;5025394;28;19952;-82
2021/12/31 05:52:14;;;;;;;;;;;12.70;99.90;;;;;;5031864;28;19952;-82
2021/12/31 05:54:41;;;;;;;;;;;12.60;99.90;;;;;;5040137;28;19926;-83
2021/12/31 05:57:07;;;;;;;;;;;12.70;99.90;;;;;;5029893;28;19925;-83
2021/12/31 05:59:34;;;;;;;;;;;12.70;99.90;;;;;;5026084;28;19965;-83
2021/12/31 06:02:00;;;;;;;;;;;12.70;99.90;;;;;;5039349;28;19925;-83
2021/12/31 06:04:28;;;;;;;;;;;12.50;99.90;;;;;;5036063;28;19952;-81
2021/12/31 06:06:54;;;;;;;;;;;12.70;99.90;;;;;;5026033;28;19925;-83
2021/12/31 06:09:21;;;;;;;;;;;12.80;99.90;;;;;;5026760;28;19925;-82
2021/12/31 06:11:47;;;;;;;;;;;12.70;99.90;;;;;;5028043;28;19926;-83
2021/12/31 06:14:16;;;;;;;;;;;12.80;99.90;;;;;;5036291;28;19955;-82
2021/12/31 06:16:44;;;;;;;;;;;12.80;99.90;;;;;;5035979;28;19925;-82
2021/12/31 06:19:15;;;;;;;;;;;12.80;99.90;;;;;;5023789;28;19925;-82
2021/12/31 06:21:44;;;;;;;;;;;12.80;99.90;;;;;;5022148;28;19925;-83
2021/12/31 06:24:11;;;;;;;;;;;12.90;99.90;;;;;;5030913;28;20345;-83
2021/12/31 06:26:37;;;;;;;;;;;12.80;99.90;;;;;;5030623;28;19925;-82
2021/12/31 06:29:04;;;;;;;;;;;12.80;99.90;;;;;;5024200;28;19974;-82
2021/12/31 06:31:31;;;;;;;;;;;12.80;99.90;;;;;;5025123;28;19925;-83
2021/12/31 06:33:57;;;;;;;;;;;12.80;99.90;;;;;;5023399;28;19972;-83
2021/12/31 06:36:24;;;;;;;;;;;12.70;99.90;;;;;;5022229;28;19925;-83
2021/12/31 06:38:52;;;;;;;;;;;12.80;99.90;;;;;;5022934;28;19926;-82
2021/12/31 06:41:20;;;;;;;;;;;12.80;99.90;;;;;;5022460;28;20395;-83
2021/12/31 06:43:46;;;;;;;;;;;12.80;99.90;;;;;;5022904;28;19929;-82
2021/12/31 06:46:13;;;;;;;;;;;12.70;99.90;;;;;;5022131;28;19925;-83
2021/12/31 06:48:39;;;;;;;;;;;12.70;99.90;;;;;;5025841;28;19932;-83
2021/12/31 06:51:06;;;;;;;;;;;12.70;99.90;;;;;;5028519;28;19940;-83
2021/12/31 06:53:32;;;;;;;;;;;12.70;99.90;;;;;;5038950;28;19909;-81
2021/12/31 06:56:00;;;;;;;;;;;12.70;99.90;;;;;;5039079;28;19981;-82
2021/12/31 06:58:26;;;;;;;;;;;12.70;99.90;;;;;;5036657;28;19936;-84
2021/12/31 07:00:53;;;;;;;;;;;12.70;99.90;;;;;;5023328;28;19925;-83
2021/12/31 07:03:19;;;;;;;;;;;12.80;99.90;;;;;;5020589;28;19925;-83
2021/12/31 07:05:46;;;;;;;;;;;12.60;99.90;;;;;;5021923;28;19925;-83
2021/12/31 07:08:13;;;;;;;;;;;12.70;99.90;;;;;;5022778;28;20013;-81
2021/12/31 07:10:39;;;;;;;;;;;12.60;99.90;;;;;;5024645;28;20385;-82
2021/12/31 07:13:11;;;;;;;;;;;12.70;99.90;;;;;;5022530;28;20396;-83
2021/12/31 07:15:38;;;;;;;;;;;12.70;99.90;;;;;;5025636;28;19984;-83
2021/12/31 07:18:04;;;;;;;;;;;12.80;99.90;;;;;;5027370;28;19925;-83
2021/12/31 07:20:31;;;;;;;;;;;12.70;99.90;;;;;;5026603;28;19925;-84
2021/12/31 07:23:02;;;;;;;;;;;12.70;99.90;;;;;;5029127;28;19932;-83
2021/12/31 07:25:29;;;;;;;;;;;12.70;99.90;;;;;;5021878;28;19949;-83
2021/12/31 07:27:55;;;;;;;;;;;12.70;99.90;;;;;;5020911;28;19925;-83
2021/12/31 07:30:23;;;;;;;;;;;12.70;99.90;;;;;;5020597;28;19926;-83
2021/12/31 07:32:50;;;;;;;;;;;12.70;99.90;;;;;;5022408;28;19932;-83
2021/12/31 07:35:16;;;;;;;;;;;12.70;99.90;;;;;;5022806;28;19964;-83
2021/12/31 07:37:42;;;;;;;;;;;12.70;99.90;;;;;;5021510;28;19925;-84
2021/12/31 07:40:12;;;;;;;;;;;12.70;99.90;;;;;;5020672;28;20388;-83
2021/12/31 07:42:38;;;;;;;;;;;12.70;99.90;;;;;;5021328;28;19926;-83
2021/12/31 07:45:06;;;;;;;;;;;12.70;99.90;;;;;;5021666;28;20277;-82
2021/12/31 07:47:33;;;;;;;;;;;12.70;99.90;;;;;;5019998;28;19926;-82
2021/12/31 07:50:00;;;;;;;;;;;12.70;99.90;;;;;;5020816;28;20293;-84
2021/12/31 07:52:26;;;;;;;;;;;12.80;99.90;;;;;;5020593;28;19929;-84
2021/12/31 07:54:53;;;;;;;;;;;12.80;99.90;;;;;;5019364;28;19926;-84
2021/12/31 07:57:19;;;;;;;;;;;12.80;99.90;;;;;;5020821;28;19926;-84
2021/12/31 07:59:46;;;;;;;;;;;12.80;99.90;;;;;;5019485;28;19929;-83
2021/12/31 08:02:12;;;;;;;;;;;12.90;99.90;;;;;;5028767;28;20332;-79
2021/12/31 08:04:40;;;;;;;;;;;12.90;99.90;;;;;;5031390;28;19964;-81
2021/12/31 08:07:06;;;;;;;;;;;12.80;99.90;;;;;;5033567;28;19929;-81
2021/12/31 08:09:33;;;;;;;;;;;12.90;99.90;;;;;;5021249;28;19926;-80
2021/12/31 08:11:59;;;;;;;;;;;12.90;99.90;;;;;;5022356;28;19972;-81
2021/12/31 08:14:25;;;;;;;;;;;12.70;99.90;;;;;;5022715;28;19926;-81
2021/12/31 08:16:52;;;;;;;;;;;12.80;99.90;;;;;;5021082;28;20341;-80
2021/12/31 08:19:18;;;;;;;;;;;12.80;99.90;;;;;;5020588;28;19926;-83
2021/12/31 08:21:46;;;;;;;;;;;12.90;99.90;;;;;;5020265;28;19925;-80
2021/12/31 08:24:13;;;;;;;;;;;12.90;99.90;;;;;;5020324;28;19930;-80
2021/12/31 08:26:39;;;;;;;;;;;12.90;99.90;;;;;;5022938;28;19992;-81
2021/12/31 08:29:08;;;;;;;;;;;12.90;99.90;;;;;;5026994;28;19925;-81
2021/12/31 08:31:34;;;;;;;;;;;13.00;99.90;;;;;;5024411;28;20401;-81
2021/12/31 08:34:01;;;;;;;;;;;13.00;99.90;;;;;;5020635;28;19968;-81
2021/12/31 08:36:27;;;;;;;;;;;13.00;99.90;;;;;;5020443;28;20429;-81
2021/12/31 08:38:55;;;;;;;;;;;13.00;99.90;;;;;;5020581;28;20273;-81
2021/12/31 08:41:22;;;;;;;;;;;12.80;99.90;;;;;;5020671;28;19926;-80
2021/12/31 08:43:48;;;;;;;;;;;13.10;99.90;;;;;;5028358;28;19991;-80
2021/12/31 08:46:14;;;;;;;;;;;13.10;99.90;;;;;;5030569;28;19926;-80
2021/12/31 08:48:41;;;;;;;;;;;13.20;99.90;;;;;;5025761;28;19980;-81
2021/12/31 08:51:07;;;;;;;;;;;13.10;99.90;;;;;;5021420;28;19933;-81
2021/12/31 08:53:34;;;;;;;;;;;13.10;99.90;;;;;;5021158;28;19961;-81
2021/12/31 08:56:02;;;;;;;;;;;13.10;99.90;;;;;;5019814;28;20304;-81
2021/12/31 08:58:28;;;;;;;;;;;13.00;99.90;;;;;;5019801;28;19979;-81
2021/12/31 09:00:55;;;;;;;;;;;13.00;99.90;;;;;;5020388;28;20339;-81
2021/12/31 09:03:21;;;;;;;;;;;13.10;99.90;;;;;;5020555;28;19929;-81
2021/12/31 09:05:48;;;;;;;;;;;13.00;99.90;;;;;;5019734;28;19926;-81
2021/12/31 09:08:15;;;;;;;;;;;13.10;99.90;;;;;;5020741;28;19925;-82
2021/12/31 09:10:41;;;;;;;;;;;13.10;99.90;;;;;;5020780;28;19932;-80
2021/12/31 09:13:09;;;;;;;;;;;13.10;99.90;;;;;;5021251;28;20288;-80
2021/12/31 09:15:35;;;;;;;;;;;13.20;99.90;;;;;;5022813;28;20071;-79
2021/12/31 09:18:03;;;;;;;;;;;13.10;99.90;;;;;;5031555;28;19937;-79
2021/12/31 09:20:30;;;;;;;;;;;13.10;99.90;;;;;;5025133;28;19948;-81
2021/12/31 09:22:56;;;;;;;;;;;13.20;99.90;;;;;;5024277;28;19925;-81
2021/12/31 09:25:23;;;;;;;;;;;13.10;99.90;;;;;;5034114;28;19917;-80
2021/12/31 09:27:49;;;;;;;;;;;13.10;99.90;;;;;;5028371;28;19930;-81
2021/12/31 09:30:17;;;;;;;;;;;13.00;99.90;;;;;;5022787;28;19969;-81
2021/12/31 09:32:43;;;;;;;;;;;13.10;99.90;;;;;;5021545;28;20312;-81
2021/12/31 09:35:10;;;;;;;;;;;13.10;99.90;;;;;;5025238;28;19937;-79
2021/12/31 09:37:37;;;;;;;;;;;13.20;99.90;;;;;;5030200;28;19929;-80
2021/12/31 09:40:03;;;;;;;;;;;13.20;99.90;;;;;;5026005;28;19932;-81
2021/12/31 09:42:30;;;;;;;;;;;13.20;99.90;;;;;;5022851;28;20436;-79
2021/12/31 09:44:56;;;;;;;;;;;13.20;99.90;;;;;;5023070;28;19933;-79
2021/12/31 09:47:24;;;;;;;;;;;13.20;99.90;;;;;;5021747;28;19979;-80
2021/12/31 09:49:51;;;;;;;;;;;13.20;99.90;;;;;;5022134;28;19925;-81
2021/12/31 09:52:17;;;;;;;;;;;13.20;99.90;;;;;;5027439;28;19929;-81
2021/12/31 09:54:45;;;;;;;;;;;13.30;99.90;;;;;;5031213;28;19936;-80
2021/12/31 09:57:12;;;;;;;;;;;13.30;99.90;;;;;;5024793;28;19988;-80
2021/12/31 09:59:40;;;;;;;;;;;13.20;99.90;;;;;;5025372;28;19935;-80
2021/12/31 10:02:08;;;;;;;;;;;13.20;99.90;;;;;;5020163;28;20020;-79
2021/12/31 10:07:30;;;;;;;;;;;13.10;99.90;;;;;;5097473;28;19954;-81
2021/12/31 10:10:04;;;;;;;;;;;13.10;99.90;;;;;;5099954;28;19931;-80
2021/12/31 10:12:44;;;;;;;;;;;13.10;99.90;;;;;;5099435;28;19925;-80
2021/12/31 10:15:10;;;;;;;;;;;13.10;99.90;;;;;;5095277;28;19924;-80
2021/12/31 10:17:37;;;;;;;;;;;13.10;99.90;;;;;;5095936;28;20387;-82
2021/12/31 10:20:04;;;;;;;;;;;13.10;99.90;;;;;;5020730;22;19965;-80
2021/12/31 10:22:32;;;;;;;;;;;13.00;99.90;;;;;;4971751;28;19970;-79
2021/12/31 10:24:59;;;;;;;;;;;13.00;99.90;;;;;;4971754;28;19969;-79
2021/12/31 10:27:25;;;;;;;;;;;13.00;99.90;;;;;;4977297;28;20325;-79
2021/12/31 10:29:52;;;;;;;;;;;13.00;99.90;;;;;;4977896;28;20419;-79
2021/12/31 10:32:19;;;;;;;;;;;13.00;99.90;;;;;;4977418;28;19930;-78
2021/12/31 10:34:46;;;;;;;;;;;13.00;99.90;;;;;;4974161;28;19931;-80
2021/12/31 10:37:14;;;;;;;;;;;13.00;99.90;;;;;;4971973;28;19933;-80
2021/12/31 10:39:43;;;;;;;;;;;13.00;99.90;;;;;;4971133;28;20292;-79
2021/12/31 10:42:11;;;;;;;;;;;12.90;99.90;;;;;;4973241;28;20361;-79
2021/12/31 10:44:42;;;;;;;;;;;12.50;99.90;;;;;;4980433;28;19926;-79
2021/12/31 10:47:10;;;;;;;;;;;12.90;99.90;;;;;;4972547;28;19931;-79
2021/12/31 10:49:57;;;;;;;;;;;12.90;99.90;;;;;;4972648;28;19930;-78
2021/12/31 10:52:24;;;;;;;;;;;13.00;99.90;;;;;;4970727;28;19926;-78
2021/12/31 10:55:01;;;;;;;;;;;12.90;99.90;;;;;;4970203;28;19973;-78
2021/12/31 10:57:34;;;;;;;;;;;13.00;99.90;;;;;;4971684;28;19935;-78
2021/12/31 11:00:00;;;;;;;;;;;13.00;99.90;;;;;;4970658;28;19972;-79
2021/12/31 11:02:27;;;;;;;;;;;12.90;99.90;;;;;;4971546;28;19927;-79
2021/12/31 11:04:54;;;;;;;;;;;13.00;99.90;;;;;;4970760;28;19926;-79
2021/12/31 11:07:20;;;;;;;;;;;13.00;99.90;;;;;;4971041;28;19977;-78
2021/12/31 11:09:48;;;;;;;;;;;13.00;99.90;;;;;;4971087;28;19958;-80
2021/12/31 11:12:16;;;;;;;;;;;13.00;99.90;;;;;;4971114;28;19937;-80
2021/12/31 11:14:43;;;;;;;;;;;13.00;99.90;;;;;;4971298;28;19933;-80
2021/12/31 11:17:09;;;;;;;;;;;12.90;99.90;;;;;;4967165;28;19931;-79
2021/12/31 11:19:39;;;;;;;;;;;13.00;99.90;;;;;;4966582;28;20340;-78
2021/12/31 11:22:06;;;;;;;;;;;13.10;99.90;;;;;;4961214;28;19926;-79
2021/12/31 11:24:34;;;;;;;;;;;13.10;99.90;;;;;;4959023;28;19962;-79
2021/12/31 11:27:20;;;;;;;;;;;13.10;99.90;;;;;;4959970;29;19938;-80
2021/12/31 11:29:48;;;;;;;;;;;14.40;99.90;;;;;;4960446;29;19968;-80
2021/12/31 11:32:15;;;;;;;;;;;13.20;99.90;;;;;;4960869;29;19981;-80
2021/12/31 11:34:43;;;;;;;;;;;13.30;99.90;;;;;;4958819;28;20378;-80
2021/12/31 11:37:09;;;;;;;;;;;13.30;99.90;;;;;;4958159;28;19931;-79
2021/12/31 11:39:38;;;;;;;;;;;13.30;99.90;;;;;;4959754;28;19954;-81
2021/12/31 11:42:05;;;;;;;;;;;13.30;99.90;;;;;;4963830;28;19927;-77
2021/12/31 11:44:32;;;;;;;;;;;13.30;99.90;;;;;;4967142;29;19927;-78
2021/12/31 11:47:14;;;;;;;;;;;13.20;99.90;;;;;;4964934;28;19931;-77
2021/12/31 11:49:41;;;;;;;;;;;13.20;99.90;;;;;;4965227;28;19926;-78
2021/12/31 11:52:09;;;;;;;;;;;13.20;99.90;;;;;;4967145;29;19933;-79
2021/12/31 11:54:36;;;;;;;;;;;13.10;99.90;;;;;;4965388;29;19995;-79
2021/12/31 11:57:05;;;;;;;;;;;13.10;99.90;;;;;;4958720;28;19927;-79
2021/12/31 11:59:36;;;;;;;;;;;13.10;99.90;;;;;;4957816;29;19976;-80
2021/12/31 12:02:11;;;;;;;;;;;13.10;99.90;;;;;;4957780;29;19953;-79
2021/12/31 12:04:40;;;;;;;;;;;13.10;99.90;;;;;;4957514;29;19927;-79
2021/12/31 12:07:07;;;;;;;;;;;13.00;99.90;;;;;;4957732;28;19927;-79
2021/12/31 12:09:52;;;;;;;;;;;13.10;99.90;;;;;;4957640;29;19927;-79
2021/12/31 12:12:26;;;;;;;;;;;13.10;99.90;;;;;;4957557;28;19927;-79
2021/12/31 12:14:53;;;;;;;;;;;13.10;99.90;;;;;;4956892;29;19926;-80
2021/12/31 12:17:43;;;;;;;;;;;13.00;99.90;;;;;;4957559;28;20380;-79
2021/12/31 12:20:13;;;;;;;;;;;13.10;99.90;;;;;;4955878;28;19949;-78
2021/12/31 12:22:49;;;;;;;;;;;13.10;99.90;;;;;;4957870;29;20444;-78
2021/12/31 12:25:17;;;;;;;;;;;13.10;99.90;;;;;;4956623;28;19926;-78
2021/12/31 12:27:44;;;;;;;;;;;13.10;99.90;;;;;;4957815;28;20393;-78
2021/12/31 12:30:11;;;;;;;;;;;13.10;99.90;;;;;;4954960;28;19926;-79
2021/12/31 12:32:51;;;;;;;;;;;13.10;99.90;;;;;;4957067;29;19934;-79
2021/12/31 12:35:21;;;;;;;;;;;13.20;99.90;;;;;;4957194;29;19927;-80
2021/12/31 12:37:55;;;;;;;;;;;13.20;99.90;;;;;;4958425;29;19927;-79
2021/12/31 12:40:21;;;;;;;;;;;13.20;99.90;;;;;;4955934;29;19988;-80
2021/12/31 12:42:47;;;;;;;;;;;13.30;99.90;;;;;;4956849;29;20373;-80
2021/12/31 12:45:14;;;;;;;;;;;13.30;99.90;;;;;;4956069;29;20064;-79
2021/12/31 12:47:40;;;;;;;;;;;13.40;99.90;;;;;;4956574;29;19976;-79
2021/12/31 12:50:09;;;;;;;;;;;13.50;99.90;;;;;;4956195;28;20374;-79
2021/12/31 12:52:37;;;;;;;;;;;13.50;99.90;;;;;;4956284;29;20362;-79
2021/12/31 12:55:09;;;;;;;;;;;13.60;99.90;;;;;;4956078;29;19988;-79
2021/12/31 12:57:36;;;;;;;;;;;13.60;99.90;;;;;;4957350;29;19977;-79
2021/12/31 13:00:04;;;;;;;;;;;13.60;99.90;;;;;;4957081;28;19980;-79
2021/12/31 13:02:38;;;;;;;;;;;13.60;99.90;;;;;;4958151;29;19926;-78
2021/12/31 13:05:05;;;;;;;;;;;13.70;99.90;;;;;;4957408;29;19926;-78
2021/12/31 13:07:32;;;;;;;;;;;13.60;99.90;;;;;;4956178;29;19927;-78
2021/12/31 13:10:05;;;;;;;;;;;13.60;99.90;;;;;;4956277;29;20026;-79
2021/12/31 13:12:31;;;;;;;;;;;13.60;99.90;;;;;;4962233;29;19954;-80
2021/12/31 13:14:59;;;;;;;;;;;13.60;99.90;;;;;;4958246;28;19934;-81
2021/12/31 13:17:26;;;;;;;;;;;13.70;99.90;;;;;;4956373;29;19926;-79
2021/12/31 13:20:03;;;;;;;;;;;13.70;99.90;;;;;;4960345;28;19977;-77
2021/12/31 13:22:32;;;;;;;;;;;13.70;99.90;;;;;;4961695;29;20440;-79
2021/12/31 13:24:59;;;;;;;;;;;13.60;99.90;;;;;;4956449;29;19927;-79
2021/12/31 13:27:27;;;;;;;;;;;13.60;99.90;;;;;;4956956;28;20316;-79
2021/12/31 13:30:02;;;;;;;;;;;13.60;99.90;;;;;;4955694;28;19976;-79
2021/12/31 13:32:36;;;;;;;;;;;13.60;99.90;;;;;;4956882;28;20046;-80
2021/12/31 13:35:05;;;;;;;;;;;13.60;99.90;;;;;;4955649;28;19927;-80
2021/12/31 13:37:34;;;;;;;;;;;13.70;99.90;;;;;;4955620;28;19970;-80
2021/12/31 13:40:08;;;;;;;;;;;13.70;99.90;;;;;;4955112;29;20025;-80
2021/12/31 13:42:36;;;;;;;;;;;13.70;99.90;;;;;;4955951;28;20357;-80
2021/12/31 13:45:03;;;;;;;;;;;13.60;99.90;;;;;;4956380;29;19933;-78
2021/12/31 13:47:30;;;;;;;;;;;13.60;99.90;;;;;;4960609;29;19988;-79
2021/12/31 13:49:57;;;;;;;;;;;13.60;99.90;;;;;;4960725;29;19976;-78
2021/12/31 13:52:24;;;;;;;;;;;13.60;99.90;;;;;;4960565;29;20026;-78
2021/12/31 13:54:52;;;;;;;;;;;13.60;99.90;;;;;;4956278;29;20361;-79
2021/12/31 13:57:19;;;;;;;;;;;13.60;99.90;;;;;;4955369;28;19994;-79
2021/12/31 13:59:48;;;;;;;;;;;13.60;99.90;;;;;;4954693;29;19962;-79
2021/12/31 14:02:17;;;;;;;;;;;13.50;99.90;;;;;;4956258;28;19958;-79
2021/12/31 14:05:00;;;;;;;;;;;13.50;99.90;;;;;;4954827;29;20401;-79
2021/12/31 14:07:32;;;;;;;;;;;13.50;99.90;;;;;;4955334;29;20029;-82
2021/12/31 14:09:59;;;;;;;;;;;13.50;99.90;;;;;;4963945;29;19933;-78
2021/12/31 14:12:25;;;;;;;;;;;13.50;99.90;;;;;;4956450;28;19973;-78
2021/12/31 14:14:53;;;;;;;;;;;13.40;99.90;;;;;;4958965;29;19927;-77
2021/12/31 14:17:20;;;;;;;;;;;13.50;99.90;;;;;;4963243;28;20472;-78
2021/12/31 14:19:46;;;;;;;;;;;13.50;99.90;;;;;;4962510;28;20381;-78
2021/12/31 14:22:13;;;;;;;;;;;13.50;99.90;;;;;;4963988;29;19927;-78
2021/12/31 14:24:39;;;;;;;;;;;13.50;99.90;;;;;;4960345;29;20008;-79
2021/12/31 14:27:07;;;;;;;;;;;13.40;99.90;;;;;;4958546;28;19926;-78